sensor_id;sensor_type;location;lat;lon;timestamp;P1;durP1;ratioP1;P2;durP2;ratioP2
49828;SDS011;35723;51.194;5.112;2023-03-11T00:00:24;22.98;;;4.32;;
49828;SDS011;35723;51.194;5.112;2023-03-11T00:02:52;20.92;;;4.18;;
49828;SDS011;35723;51.194;5.112;2023-03-11T00:05:26;17.35;;;4.10;;
49828;SDS011;35723;51.194;5.112;2023-03-11T00:07:53;17.23;;;4.25;;
49828;SDS011;35723;51.194;5.112;2023-03-11T00:10:21;19.80;;;4.28;;
49828;SDS011;35723;51.194;5.112;2023-03-11T00:12:51;20.02;;;4.50;;
49828;SDS011;35723;51.194;5.112;2023-03-11T00:15:16;21.25;;;4.50;;
49828;SDS011;35723;51.194;5.112;2023-03-11T00:17:42;13.98;;;3.95;;
49828;SDS011;35723;51.194;5.112;2023-03-11T00:20:13;23.40;;;4.43;;
49828;SDS011;35723;51.194;5.112;2023-03-11T00:22:44;18.30;;;3.95;;
49828;SDS011;35723;51.194;5.112;2023-03-11T00:25:11;17.33;;;4.07;;
49828;SDS011;35723;51.194;5.112;2023-03-11T00:27:37;22.88;;;4.93;;
49828;SDS011;35723;51.194;5.112;2023-03-11T00:30:03;18.17;;;5.88;;
49828;SDS011;35723;51.194;5.112;2023-03-11T00:32:29;20.98;;;6.20;;
49828;SDS011;35723;51.194;5.112;2023-03-11T00:34:54;26.27;;;6.85;;
49828;SDS011;35723;51.194;5.112;2023-03-11T00:37:20;20.27;;;5.47;;
49828;SDS011;35723;51.194;5.112;2023-03-11T00:39:46;21.40;;;5.03;;
49828;SDS011;35723;51.194;5.112;2023-03-11T00:42:11;21.23;;;5.43;;
49828;SDS011;35723;51.194;5.112;2023-03-11T00:44:37;27.60;;;5.32;;
49828;SDS011;35723;51.194;5.112;2023-03-11T00:47:03;19.88;;;4.55;;
49828;SDS011;35723;51.194;5.112;2023-03-11T00:49:28;16.17;;;4.80;;
49828;SDS011;35723;51.194;5.112;2023-03-11T00:51:54;18.02;;;4.68;;
49828;SDS011;35723;51.194;5.112;2023-03-11T00:54:20;18.02;;;4.97;;
49828;SDS011;35723;51.194;5.112;2023-03-11T00:56:45;19.92;;;5.40;;
49828;SDS011;35723;51.194;5.112;2023-03-11T00:59:11;19.83;;;6.13;;
49828;SDS011;35723;51.194;5.112;2023-03-11T01:01:36;20.98;;;6.68;;
49828;SDS011;35723;51.194;5.112;2023-03-11T01:04:02;21.17;;;6.88;;
49828;SDS011;35723;51.194;5.112;2023-03-11T01:06:28;20.33;;;6.05;;
49828;SDS011;35723;51.194;5.112;2023-03-11T01:08:53;20.60;;;5.45;;
49828;SDS011;35723;51.194;5.112;2023-03-11T01:11:19;22.05;;;5.28;;
49828;SDS011;35723;51.194;5.112;2023-03-11T01:13:45;21.67;;;5.38;;
49828;SDS011;35723;51.194;5.112;2023-03-11T01:16:11;23.63;;;5.35;;
49828;SDS011;35723;51.194;5.112;2023-03-11T01:18:36;24.10;;;5.07;;
49828;SDS011;35723;51.194;5.112;2023-03-11T01:21:02;19.70;;;4.55;;
49828;SDS011;35723;51.194;5.112;2023-03-11T01:23:28;17.08;;;4.72;;
49828;SDS011;35723;51.194;5.112;2023-03-11T01:25:54;19.27;;;4.75;;
49828;SDS011;35723;51.194;5.112;2023-03-11T01:28:19;22.27;;;5.03;;
49828;SDS011;35723;51.194;5.112;2023-03-11T01:30:45;18.67;;;4.55;;
49828;SDS011;35723;51.194;5.112;2023-03-11T01:33:17;19.58;;;4.55;;
49828;SDS011;35723;51.194;5.112;2023-03-11T01:35:43;17.35;;;4.68;;
49828;SDS011;35723;51.194;5.112;2023-03-11T01:38:10;23.42;;;4.70;;
49828;SDS011;35723;51.194;5.112;2023-03-11T01:40:37;19.13;;;4.60;;
49828;SDS011;35723;51.194;5.112;2023-03-11T01:48:32;17.52;;;4.60;;
49828;SDS011;35723;51.194;5.112;2023-03-11T01:50:58;17.88;;;4.53;;
49828;SDS011;35723;51.194;5.112;2023-03-11T01:53:24;17.50;;;4.95;;
49828;SDS011;35723;51.194;5.112;2023-03-11T01:55:50;17.75;;;5.05;;
49828;SDS011;35723;51.194;5.112;2023-03-11T01:58:23;20.48;;;4.28;;
49828;SDS011;35723;51.194;5.112;2023-03-11T02:00:50;20.92;;;4.72;;
49828;SDS011;35723;51.194;5.112;2023-03-11T02:03:25;17.65;;;4.70;;
49828;SDS011;35723;51.194;5.112;2023-03-11T02:05:54;18.17;;;4.63;;
49828;SDS011;35723;51.194;5.112;2023-03-11T02:08:24;18.95;;;4.43;;
49828;SDS011;35723;51.194;5.112;2023-03-11T02:10:50;23.70;;;4.80;;
49828;SDS011;35723;51.194;5.112;2023-03-11T02:13:17;20.35;;;4.80;;
49828;SDS011;35723;51.194;5.112;2023-03-11T02:15:44;23.20;;;6.38;;
49828;SDS011;35723;51.194;5.112;2023-03-11T02:18:11;17.60;;;4.50;;
49828;SDS011;35723;51.194;5.112;2023-03-11T02:20:44;20.50;;;5.03;;
49828;SDS011;35723;51.194;5.112;2023-03-11T02:23:15;24.30;;;5.30;;
49828;SDS011;35723;51.194;5.112;2023-03-11T02:25:55;21.20;;;5.15;;
49828;SDS011;35723;51.194;5.112;2023-03-11T02:28:28;22.15;;;5.78;;
49828;SDS011;35723;51.194;5.112;2023-03-11T02:30:55;19.63;;;5.00;;
49828;SDS011;35723;51.194;5.112;2023-03-11T02:33:22;19.30;;;5.22;;
49828;SDS011;35723;51.194;5.112;2023-03-11T02:35:53;22.30;;;5.30;;
49828;SDS011;35723;51.194;5.112;2023-03-11T02:38:18;18.60;;;5.30;;
49828;SDS011;35723;51.194;5.112;2023-03-11T02:40:57;21.95;;;5.50;;
49828;SDS011;35723;51.194;5.112;2023-03-11T02:43:42;21.05;;;4.82;;
49828;SDS011;35723;51.194;5.112;2023-03-11T02:46:09;20.95;;;5.13;;
49828;SDS011;35723;51.194;5.112;2023-03-11T02:48:37;22.33;;;5.20;;
49828;SDS011;35723;51.194;5.112;2023-03-11T02:51:03;16.95;;;4.65;;
49828;SDS011;35723;51.194;5.112;2023-03-11T02:53:30;16.95;;;4.63;;
49828;SDS011;35723;51.194;5.112;2023-03-11T02:56:01;17.38;;;4.80;;
49828;SDS011;35723;51.194;5.112;2023-03-11T02:58:27;18.25;;;4.68;;
49828;SDS011;35723;51.194;5.112;2023-03-11T03:00:53;21.10;;;5.10;;
49828;SDS011;35723;51.194;5.112;2023-03-11T03:03:18;20.40;;;4.70;;
49828;SDS011;35723;51.194;5.112;2023-03-11T03:05:44;23.42;;;5.47;;
49828;SDS011;35723;51.194;5.112;2023-03-11T03:08:10;18.55;;;5.35;;
49828;SDS011;35723;51.194;5.112;2023-03-11T03:10:35;21.23;;;4.70;;
49828;SDS011;35723;51.194;5.112;2023-03-11T03:13:01;15.65;;;4.88;;
49828;SDS011;35723;51.194;5.112;2023-03-11T03:15:27;20.38;;;5.00;;
49828;SDS011;35723;51.194;5.112;2023-03-11T03:17:52;18.08;;;4.68;;
49828;SDS011;35723;51.194;5.112;2023-03-11T03:20:18;19.17;;;5.05;;
49828;SDS011;35723;51.194;5.112;2023-03-11T03:22:46;19.42;;;5.13;;
49828;SDS011;35723;51.194;5.112;2023-03-11T03:25:13;20.98;;;5.88;;
49828;SDS011;35723;51.194;5.112;2023-03-11T03:27:38;16.88;;;5.45;;
49828;SDS011;35723;51.194;5.112;2023-03-11T03:30:04;19.05;;;5.20;;
49828;SDS011;35723;51.194;5.112;2023-03-11T03:32:31;22.02;;;5.53;;
49828;SDS011;35723;51.194;5.112;2023-03-11T03:34:56;21.65;;;5.85;;
49828;SDS011;35723;51.194;5.112;2023-03-11T03:37:24;21.27;;;5.15;;
49828;SDS011;35723;51.194;5.112;2023-03-11T03:39:50;19.90;;;5.22;;
49828;SDS011;35723;51.194;5.112;2023-03-11T03:42:16;16.55;;;5.38;;
49828;SDS011;35723;51.194;5.112;2023-03-11T03:44:41;19.63;;;5.45;;
49828;SDS011;35723;51.194;5.112;2023-03-11T03:47:07;18.90;;;5.10;;
49828;SDS011;35723;51.194;5.112;2023-03-11T03:49:33;19.48;;;5.22;;
49828;SDS011;35723;51.194;5.112;2023-03-11T03:51:58;23.02;;;5.70;;
49828;SDS011;35723;51.194;5.112;2023-03-11T03:54:24;19.05;;;4.72;;
49828;SDS011;35723;51.194;5.112;2023-03-11T03:56:50;18.70;;;5.40;;
49828;SDS011;35723;51.194;5.112;2023-03-11T03:59:15;18.88;;;5.68;;
49828;SDS011;35723;51.194;5.112;2023-03-11T04:01:42;21.20;;;5.45;;
49828;SDS011;35723;51.194;5.112;2023-03-11T04:04:08;25.88;;;5.63;;
49828;SDS011;35723;51.194;5.112;2023-03-11T04:06:33;24.10;;;5.60;;
49828;SDS011;35723;51.194;5.112;2023-03-11T04:08:59;20.30;;;5.40;;
49828;SDS011;35723;51.194;5.112;2023-03-11T04:11:25;21.17;;;5.78;;
49828;SDS011;35723;51.194;5.112;2023-03-11T04:13:50;24.52;;;6.07;;
49828;SDS011;35723;51.194;5.112;2023-03-11T04:16:17;18.67;;;5.43;;
49828;SDS011;35723;51.194;5.112;2023-03-11T04:18:45;20.73;;;5.60;;
49828;SDS011;35723;51.194;5.112;2023-03-11T04:21:11;19.13;;;5.72;;
49828;SDS011;35723;51.194;5.112;2023-03-11T04:23:37;18.63;;;5.25;;
49828;SDS011;35723;51.194;5.112;2023-03-11T04:26:03;21.23;;;5.82;;
49828;SDS011;35723;51.194;5.112;2023-03-11T04:28:29;21.92;;;6.07;;
49828;SDS011;35723;51.194;5.112;2023-03-11T04:30:54;17.85;;;5.40;;
49828;SDS011;35723;51.194;5.112;2023-03-11T04:33:20;19.90;;;6.13;;
49828;SDS011;35723;51.194;5.112;2023-03-11T04:35:52;19.38;;;5.47;;
49828;SDS011;35723;51.194;5.112;2023-03-11T04:38:18;20.75;;;5.97;;
49828;SDS011;35723;51.194;5.112;2023-03-11T04:40:43;23.00;;;6.10;;
49828;SDS011;35723;51.194;5.112;2023-03-11T04:43:09;25.30;;;6.38;;
49828;SDS011;35723;51.194;5.112;2023-03-11T04:45:38;25.05;;;6.25;;
49828;SDS011;35723;51.194;5.112;2023-03-11T04:48:04;21.35;;;6.28;;
49828;SDS011;35723;51.194;5.112;2023-03-11T04:50:30;21.42;;;6.05;;
49828;SDS011;35723;51.194;5.112;2023-03-11T04:52:56;22.48;;;6.40;;
49828;SDS011;35723;51.194;5.112;2023-03-11T04:55:21;21.05;;;6.20;;
49828;SDS011;35723;51.194;5.112;2023-03-11T04:57:47;26.48;;;6.20;;
49828;SDS011;35723;51.194;5.112;2023-03-11T05:00:13;23.60;;;6.50;;
49828;SDS011;35723;51.194;5.112;2023-03-11T05:02:40;21.33;;;6.68;;
49828;SDS011;35723;51.194;5.112;2023-03-11T05:05:07;22.55;;;6.57;;
49828;SDS011;35723;51.194;5.112;2023-03-11T05:07:34;30.40;;;7.30;;
49828;SDS011;35723;51.194;5.112;2023-03-11T05:10:00;24.13;;;6.82;;
49828;SDS011;35723;51.194;5.112;2023-03-11T05:12:26;23.33;;;6.90;;
49828;SDS011;35723;51.194;5.112;2023-03-11T05:14:52;21.60;;;6.55;;
49828;SDS011;35723;51.194;5.112;2023-03-11T05:17:18;21.90;;;7.10;;
49828;SDS011;35723;51.194;5.112;2023-03-11T05:19:44;19.73;;;6.65;;
49828;SDS011;35723;51.194;5.112;2023-03-11T05:22:10;23.17;;;6.97;;
49828;SDS011;35723;51.194;5.112;2023-03-11T05:24:35;23.58;;;7.18;;
49828;SDS011;35723;51.194;5.112;2023-03-11T05:27:01;26.33;;;7.85;;
49828;SDS011;35723;51.194;5.112;2023-03-11T05:29:28;24.88;;;7.22;;
49828;SDS011;35723;51.194;5.112;2023-03-11T05:31:54;21.35;;;6.90;;
49828;SDS011;35723;51.194;5.112;2023-03-11T05:34:20;20.50;;;6.22;;
49828;SDS011;35723;51.194;5.112;2023-03-11T05:36:45;24.17;;;6.93;;
49828;SDS011;35723;51.194;5.112;2023-03-11T05:39:11;23.13;;;7.28;;
49828;SDS011;35723;51.194;5.112;2023-03-11T05:41:37;22.42;;;6.70;;
49828;SDS011;35723;51.194;5.112;2023-03-11T05:44:03;21.65;;;7.13;;
49828;SDS011;35723;51.194;5.112;2023-03-11T05:46:29;20.45;;;7.40;;
49828;SDS011;35723;51.194;5.112;2023-03-11T05:48:54;22.05;;;6.70;;
49828;SDS011;35723;51.194;5.112;2023-03-11T05:51:20;20.38;;;7.13;;
49828;SDS011;35723;51.194;5.112;2023-03-11T05:53:46;20.02;;;7.13;;
49828;SDS011;35723;51.194;5.112;2023-03-11T05:56:17;22.70;;;7.50;;
49828;SDS011;35723;51.194;5.112;2023-03-11T05:58:44;23.08;;;7.95;;
49828;SDS011;35723;51.194;5.112;2023-03-11T06:01:11;23.85;;;7.30;;
49828;SDS011;35723;51.194;5.112;2023-03-11T06:03:39;25.38;;;7.80;;
49828;SDS011;35723;51.194;5.112;2023-03-11T06:06:06;21.58;;;7.45;;
49828;SDS011;35723;51.194;5.112;2023-03-11T06:08:34;24.58;;;7.53;;
49828;SDS011;35723;51.194;5.112;2023-03-11T06:11:07;21.58;;;7.63;;
49828;SDS011;35723;51.194;5.112;2023-03-11T06:13:34;23.77;;;7.47;;
49828;SDS011;35723;51.194;5.112;2023-03-11T06:16:00;24.48;;;8.00;;
49828;SDS011;35723;51.194;5.112;2023-03-11T06:18:26;19.58;;;7.32;;
49828;SDS011;35723;51.194;5.112;2023-03-11T06:20:52;24.05;;;7.72;;
49828;SDS011;35723;51.194;5.112;2023-03-11T06:23:19;23.45;;;7.63;;
49828;SDS011;35723;51.194;5.112;2023-03-11T06:25:53;27.52;;;9.73;;
49828;SDS011;35723;51.194;5.112;2023-03-11T06:28:27;24.33;;;8.27;;
49828;SDS011;35723;51.194;5.112;2023-03-11T06:30:53;28.95;;;9.20;;
49828;SDS011;35723;51.194;5.112;2023-03-11T06:33:21;25.33;;;9.65;;
49828;SDS011;35723;51.194;5.112;2023-03-11T06:35:57;31.50;;;10.73;;
49828;SDS011;35723;51.194;5.112;2023-03-11T06:38:24;29.15;;;10.60;;
49828;SDS011;35723;51.194;5.112;2023-03-11T06:40:51;30.30;;;11.05;;
49828;SDS011;35723;51.194;5.112;2023-03-11T06:43:20;27.52;;;11.02;;
49828;SDS011;35723;51.194;5.112;2023-03-11T06:45:46;31.35;;;11.32;;
49828;SDS011;35723;51.194;5.112;2023-03-11T06:48:11;29.15;;;10.80;;
49828;SDS011;35723;51.194;5.112;2023-03-11T06:50:37;28.20;;;10.55;;
49828;SDS011;35723;51.194;5.112;2023-03-11T06:53:03;30.75;;;11.15;;
49828;SDS011;35723;51.194;5.112;2023-03-11T06:55:30;29.85;;;11.35;;
49828;SDS011;35723;51.194;5.112;2023-03-11T06:57:56;36.53;;;10.95;;
49828;SDS011;35723;51.194;5.112;2023-03-11T07:00:25;32.22;;;11.60;;
49828;SDS011;35723;51.194;5.112;2023-03-11T07:02:50;28.33;;;11.38;;
49828;SDS011;35723;51.194;5.112;2023-03-11T07:05:16;30.65;;;10.77;;
49828;SDS011;35723;51.194;5.112;2023-03-11T07:07:42;27.08;;;10.85;;
49828;SDS011;35723;51.194;5.112;2023-03-11T07:10:08;30.95;;;11.40;;
49828;SDS011;35723;51.194;5.112;2023-03-11T07:12:34;26.88;;;11.23;;
49828;SDS011;35723;51.194;5.112;2023-03-11T07:14:59;25.13;;;10.35;;
49828;SDS011;35723;51.194;5.112;2023-03-11T07:17:25;24.60;;;11.27;;
49828;SDS011;35723;51.194;5.112;2023-03-11T07:19:51;24.80;;;11.32;;
49828;SDS011;35723;51.194;5.112;2023-03-11T07:22:17;29.63;;;12.10;;
49828;SDS011;35723;51.194;5.112;2023-03-11T07:24:46;26.70;;;12.15;;
49828;SDS011;35723;51.194;5.112;2023-03-11T07:27:13;28.98;;;12.82;;
49828;SDS011;35723;51.194;5.112;2023-03-11T07:29:39;25.98;;;12.32;;
49828;SDS011;35723;51.194;5.112;2023-03-11T07:32:05;29.55;;;12.57;;
49828;SDS011;35723;51.194;5.112;2023-03-11T07:34:32;28.85;;;11.70;;
49828;SDS011;35723;51.194;5.112;2023-03-11T07:39:42;28.95;;;11.85;;
49828;SDS011;35723;51.194;5.112;2023-03-11T07:42:08;30.33;;;11.93;;
49828;SDS011;35723;51.194;5.112;2023-03-11T07:44:34;27.80;;;11.57;;
49828;SDS011;35723;51.194;5.112;2023-03-11T07:47:02;27.77;;;12.73;;
49828;SDS011;35723;51.194;5.112;2023-03-11T07:49:28;29.50;;;12.25;;
49828;SDS011;35723;51.194;5.112;2023-03-11T07:51:54;24.83;;;11.23;;
49828;SDS011;35723;51.194;5.112;2023-03-11T07:54:20;25.45;;;11.77;;
49828;SDS011;35723;51.194;5.112;2023-03-11T07:56:46;26.33;;;11.43;;
49828;SDS011;35723;51.194;5.112;2023-03-11T07:59:11;26.15;;;11.48;;
49828;SDS011;35723;51.194;5.112;2023-03-11T08:01:37;32.80;;;11.15;;
49828;SDS011;35723;51.194;5.112;2023-03-11T08:04:06;27.98;;;11.75;;
49828;SDS011;35723;51.194;5.112;2023-03-11T08:06:33;26.33;;;11.20;;
49828;SDS011;35723;51.194;5.112;2023-03-11T08:09:00;27.23;;;11.35;;
49828;SDS011;35723;51.194;5.112;2023-03-11T08:11:28;28.63;;;12.27;;
49828;SDS011;35723;51.194;5.112;2023-03-11T08:13:55;33.15;;;14.02;;
49828;SDS011;35723;51.194;5.112;2023-03-11T08:16:22;30.45;;;13.02;;
49828;SDS011;35723;51.194;5.112;2023-03-11T08:18:49;28.70;;;12.18;;
49828;SDS011;35723;51.194;5.112;2023-03-11T08:21:16;29.40;;;13.00;;
49828;SDS011;35723;51.194;5.112;2023-03-11T08:23:44;33.13;;;13.35;;
49828;SDS011;35723;51.194;5.112;2023-03-11T08:26:11;28.05;;;13.38;;
49828;SDS011;35723;51.194;5.112;2023-03-11T08:28:39;27.85;;;13.35;;
49828;SDS011;35723;51.194;5.112;2023-03-11T08:31:18;30.48;;;13.90;;
49828;SDS011;35723;51.194;5.112;2023-03-11T08:33:46;28.85;;;13.50;;
49828;SDS011;35723;51.194;5.112;2023-03-11T08:36:15;26.58;;;12.40;;
49828;SDS011;35723;51.194;5.112;2023-03-11T08:38:42;30.10;;;12.85;;
49828;SDS011;35723;51.194;5.112;2023-03-11T08:41:08;32.47;;;12.50;;
49828;SDS011;35723;51.194;5.112;2023-03-11T08:43:33;27.67;;;11.18;;
49828;SDS011;35723;51.194;5.112;2023-03-11T08:46:00;29.42;;;10.95;;
49828;SDS011;35723;51.194;5.112;2023-03-11T08:48:26;25.10;;;10.00;;
49828;SDS011;35723;51.194;5.112;2023-03-11T08:50:52;26.20;;;10.07;;
49828;SDS011;35723;51.194;5.112;2023-03-11T08:53:17;21.63;;;9.43;;
49828;SDS011;35723;51.194;5.112;2023-03-11T08:55:43;24.08;;;9.18;;
49828;SDS011;35723;51.194;5.112;2023-03-11T08:58:09;22.05;;;8.35;;
49828;SDS011;35723;51.194;5.112;2023-03-11T09:00:34;22.63;;;7.88;;
49828;SDS011;35723;51.194;5.112;2023-03-11T09:03:03;17.30;;;6.95;;
49828;SDS011;35723;51.194;5.112;2023-03-11T09:05:28;23.73;;;6.68;;
49828;SDS011;35723;51.194;5.112;2023-03-11T09:07:54;22.50;;;6.70;;
49828;SDS011;35723;51.194;5.112;2023-03-11T09:10:20;20.30;;;5.63;;
49828;SDS011;35723;51.194;5.112;2023-03-11T09:12:47;19.40;;;4.85;;
49828;SDS011;35723;51.194;5.112;2023-03-11T09:15:12;16.10;;;4.57;;
49828;SDS011;35723;51.194;5.112;2023-03-11T09:17:38;14.68;;;3.80;;
49828;SDS011;35723;51.194;5.112;2023-03-11T09:20:04;16.10;;;3.58;;
49828;SDS011;35723;51.194;5.112;2023-03-11T09:22:30;13.75;;;3.47;;
49828;SDS011;35723;51.194;5.112;2023-03-11T09:24:56;16.50;;;4.10;;
49828;SDS011;35723;51.194;5.112;2023-03-11T09:27:22;11.20;;;3.47;;
49828;SDS011;35723;51.194;5.112;2023-03-11T09:29:47;18.33;;;4.00;;
49828;SDS011;35723;51.194;5.112;2023-03-11T09:32:14;19.60;;;3.83;;
49828;SDS011;35723;51.194;5.112;2023-03-11T09:34:40;8.18;;;3.15;;
49828;SDS011;35723;51.194;5.112;2023-03-11T09:45:02;13.40;;;2.88;;
49828;SDS011;35723;51.194;5.112;2023-03-11T09:51:12;13.50;;;2.38;;
49828;SDS011;35723;51.194;5.112;2023-03-11T09:53:43;8.95;;;2.40;;
49828;SDS011;35723;51.194;5.112;2023-03-11T09:56:19;11.70;;;2.10;;
49828;SDS011;35723;51.194;5.112;2023-03-11T09:58:50;10.07;;;2.45;;
49828;SDS011;35723;51.194;5.112;2023-03-11T10:01:35;10.50;;;2.35;;
49828;SDS011;35723;51.194;5.112;2023-03-11T10:04:09;9.82;;;2.45;;
49828;SDS011;35723;51.194;5.112;2023-03-11T10:06:40;7.70;;;2.40;;
49828;SDS011;35723;51.194;5.112;2023-03-11T10:17:17;9.30;;;2.28;;
49828;SDS011;35723;51.194;5.112;2023-03-11T10:25:50;9.10;;;2.40;;
49828;SDS011;35723;51.194;5.112;2023-03-11T10:28:32;10.43;;;2.05;;
49828;SDS011;35723;51.194;5.112;2023-03-11T10:36:12;11.52;;;1.80;;
49828;SDS011;35723;51.194;5.112;2023-03-11T10:38:44;8.43;;;1.80;;
49828;SDS011;35723;51.194;5.112;2023-03-11T10:44:14;7.10;;;1.55;;
49828;SDS011;35723;51.194;5.112;2023-03-11T10:46:44;6.07;;;1.35;;
49828;SDS011;35723;51.194;5.112;2023-03-11T10:49:13;8.15;;;1.27;;
49828;SDS011;35723;51.194;5.112;2023-03-11T10:51:41;5.13;;;1.30;;
49828;SDS011;35723;51.194;5.112;2023-03-11T10:59:53;12.00;;;1.63;;
49828;SDS011;35723;51.194;5.112;2023-03-11T11:02:32;11.23;;;1.85;;
49828;SDS011;35723;51.194;5.112;2023-03-11T11:07:42;9.93;;;1.98;;
49828;SDS011;35723;51.194;5.112;2023-03-11T11:15:24;6.93;;;1.80;;
49828;SDS011;35723;51.194;5.112;2023-03-11T11:17:53;9.07;;;1.90;;
49828;SDS011;35723;51.194;5.112;2023-03-11T11:20:22;9.13;;;1.85;;
49828;SDS011;35723;51.194;5.112;2023-03-11T11:23:02;9.93;;;1.92;;
49828;SDS011;35723;51.194;5.112;2023-03-11T11:25:35;10.27;;;1.70;;
49828;SDS011;35723;51.194;5.112;2023-03-11T11:28:18;7.50;;;1.77;;
49828;SDS011;35723;51.194;5.112;2023-03-11T11:30:55;11.52;;;2.33;;
49828;SDS011;35723;51.194;5.112;2023-03-11T11:36:01;7.80;;;2.10;;
49828;SDS011;35723;51.194;5.112;2023-03-11T11:38:29;12.52;;;2.17;;
49828;SDS011;35723;51.194;5.112;2023-03-11T11:41:00;6.72;;;1.80;;
49828;SDS011;35723;51.194;5.112;2023-03-11T11:43:40;10.63;;;2.00;;
49828;SDS011;35723;51.194;5.112;2023-03-11T11:46:21;7.85;;;1.85;;
49828;SDS011;35723;51.194;5.112;2023-03-11T11:51:54;5.72;;;1.52;;
49828;SDS011;35723;51.194;5.112;2023-03-11T11:57:20;6.15;;;1.90;;
49828;SDS011;35723;51.194;5.112;2023-03-11T11:59:47;6.93;;;1.70;;
49828;SDS011;35723;51.194;5.112;2023-03-11T12:10:26;8.55;;;1.88;;
49828;SDS011;35723;51.194;5.112;2023-03-11T12:18:49;10.13;;;1.80;;
49828;SDS011;35723;51.194;5.112;2023-03-11T12:27:21;6.53;;;1.90;;
49828;SDS011;35723;51.194;5.112;2023-03-11T12:29:53;7.63;;;1.63;;
49828;SDS011;35723;51.194;5.112;2023-03-11T12:32:23;6.00;;;1.60;;
49828;SDS011;35723;51.194;5.112;2023-03-11T12:35:00;10.10;;;1.75;;
49828;SDS011;35723;51.194;5.112;2023-03-11T12:37:44;6.53;;;1.70;;
49828;SDS011;35723;51.194;5.112;2023-03-11T12:43:26;10.48;;;2.28;;
49828;SDS011;35723;51.194;5.112;2023-03-11T12:45:58;14.55;;;2.10;;
49828;SDS011;35723;51.194;5.112;2023-03-11T12:53:58;10.52;;;1.80;;
49828;SDS011;35723;51.194;5.112;2023-03-11T12:56:49;7.68;;;1.95;;
49828;SDS011;35723;51.194;5.112;2023-03-11T13:05:17;7.68;;;1.90;;
49828;SDS011;35723;51.194;5.112;2023-03-11T13:13:28;10.80;;;2.25;;
49828;SDS011;35723;51.194;5.112;2023-03-11T13:15:55;7.47;;;1.60;;
49828;SDS011;35723;51.194;5.112;2023-03-11T13:18:22;11.27;;;1.80;;
49828;SDS011;35723;51.194;5.112;2023-03-11T13:20:58;9.13;;;1.55;;
49828;SDS011;35723;51.194;5.112;2023-03-11T13:23:29;4.13;;;1.60;;
49828;SDS011;35723;51.194;5.112;2023-03-11T13:26:03;9.93;;;1.80;;
49828;SDS011;35723;51.194;5.112;2023-03-11T13:28:48;6.55;;;1.90;;
49828;SDS011;35723;51.194;5.112;2023-03-11T13:34:24;5.65;;;1.60;;
49828;SDS011;35723;51.194;5.112;2023-03-11T13:44:57;11.50;;;1.70;;
49828;SDS011;35723;51.194;5.112;2023-03-11T13:47:24;6.60;;;2.08;;
49828;SDS011;35723;51.194;5.112;2023-03-11T13:50:13;6.60;;;1.85;;
49828;SDS011;35723;51.194;5.112;2023-03-11T13:53:01;7.90;;;1.80;;
49828;SDS011;35723;51.194;5.112;2023-03-11T13:55:33;4.63;;;1.85;;
49828;SDS011;35723;51.194;5.112;2023-03-11T13:58:12;8.48;;;2.30;;
49828;SDS011;35723;51.194;5.112;2023-03-11T14:00:54;13.20;;;2.10;;
49828;SDS011;35723;51.194;5.112;2023-03-11T14:03:21;7.15;;;2.03;;
49828;SDS011;35723;51.194;5.112;2023-03-11T14:05:54;12.93;;;2.17;;
49828;SDS011;35723;51.194;5.112;2023-03-11T14:08:33;5.82;;;2.10;;
49828;SDS011;35723;51.194;5.112;2023-03-11T14:11:01;8.55;;;2.10;;
49828;SDS011;35723;51.194;5.112;2023-03-11T14:13:45;11.40;;;2.20;;
49828;SDS011;35723;51.194;5.112;2023-03-11T14:18:45;8.40;;;2.35;;
49828;SDS011;35723;51.194;5.112;2023-03-11T14:21:17;5.20;;;1.80;;
49828;SDS011;35723;51.194;5.112;2023-03-11T14:23:45;6.85;;;1.73;;
49828;SDS011;35723;51.194;5.112;2023-03-11T14:28:50;7.70;;;2.10;;
49828;SDS011;35723;51.194;5.112;2023-03-11T14:34:01;6.88;;;2.17;;
49828;SDS011;35723;51.194;5.112;2023-03-11T14:45:03;9.57;;;2.00;;
49828;SDS011;35723;51.194;5.112;2023-03-11T14:50:14;8.98;;;2.58;;
49828;SDS011;35723;51.194;5.112;2023-03-11T14:52:46;11.05;;;2.75;;
49828;SDS011;35723;51.194;5.112;2023-03-11T14:55:27;8.82;;;2.28;;
49828;SDS011;35723;51.194;5.112;2023-03-11T14:58:06;7.18;;;1.80;;
49828;SDS011;35723;51.194;5.112;2023-03-11T15:00:37;6.13;;;2.00;;
49828;SDS011;35723;51.194;5.112;2023-03-11T15:03:12;7.53;;;1.80;;
49828;SDS011;35723;51.194;5.112;2023-03-11T15:05:55;9.82;;;1.90;;
49828;SDS011;35723;51.194;5.112;2023-03-11T15:08:46;7.55;;;1.95;;
49828;SDS011;35723;51.194;5.112;2023-03-11T15:13:41;9.70;;;2.03;;
49828;SDS011;35723;51.194;5.112;2023-03-11T15:18:53;7.63;;;1.80;;
49828;SDS011;35723;51.194;5.112;2023-03-11T15:21:19;9.50;;;1.85;;
49828;SDS011;35723;51.194;5.112;2023-03-11T15:23:51;9.55;;;1.98;;
49828;SDS011;35723;51.194;5.112;2023-03-11T15:26:31;10.23;;;2.00;;
49828;SDS011;35723;51.194;5.112;2023-03-11T15:29:03;7.95;;;2.00;;
49828;SDS011;35723;51.194;5.112;2023-03-11T15:31:39;9.05;;;1.98;;
49828;SDS011;35723;51.194;5.112;2023-03-11T15:37:05;9.90;;;2.00;;
49828;SDS011;35723;51.194;5.112;2023-03-11T15:39:50;11.00;;;2.25;;
49828;SDS011;35723;51.194;5.112;2023-03-11T15:42:24;7.38;;;1.95;;
49828;SDS011;35723;51.194;5.112;2023-03-11T15:47:24;10.48;;;2.05;;
49828;SDS011;35723;51.194;5.112;2023-03-11T15:49:49;10.60;;;2.10;;
49828;SDS011;35723;51.194;5.112;2023-03-11T15:52:15;7.68;;;2.08;;
49828;SDS011;35723;51.194;5.112;2023-03-11T15:54:43;6.75;;;1.98;;
49828;SDS011;35723;51.194;5.112;2023-03-11T15:57:14;12.40;;;2.40;;
49828;SDS011;35723;51.194;5.112;2023-03-11T15:59:46;11.52;;;2.22;;
49828;SDS011;35723;51.194;5.112;2023-03-11T16:02:19;8.13;;;2.30;;
49828;SDS011;35723;51.194;5.112;2023-03-11T16:04:47;7.45;;;1.85;;
49828;SDS011;35723;51.194;5.112;2023-03-11T16:07:13;10.07;;;2.20;;
49828;SDS011;35723;51.194;5.112;2023-03-11T16:09:39;6.32;;;2.00;;
49828;SDS011;35723;51.194;5.112;2023-03-11T16:12:11;9.68;;;2.22;;
49828;SDS011;35723;51.194;5.112;2023-03-11T16:14:41;4.72;;;2.05;;
49828;SDS011;35723;51.194;5.112;2023-03-11T16:17:07;9.35;;;2.15;;
49828;SDS011;35723;51.194;5.112;2023-03-11T16:19:33;8.90;;;2.00;;
49828;SDS011;35723;51.194;5.112;2023-03-11T16:21:58;8.65;;;2.20;;
49828;SDS011;35723;51.194;5.112;2023-03-11T16:24:24;8.02;;;1.95;;
49828;SDS011;35723;51.194;5.112;2023-03-11T16:26:50;8.40;;;1.90;;
49828;SDS011;35723;51.194;5.112;2023-03-11T16:29:17;7.45;;;2.30;;
49828;SDS011;35723;51.194;5.112;2023-03-11T16:31:44;12.45;;;2.35;;
49828;SDS011;35723;51.194;5.112;2023-03-11T16:34:09;5.80;;;1.70;;
49828;SDS011;35723;51.194;5.112;2023-03-11T16:36:44;10.60;;;1.90;;
49828;SDS011;35723;51.194;5.112;2023-03-11T16:39:10;10.52;;;2.33;;
49828;SDS011;35723;51.194;5.112;2023-03-11T16:41:39;7.90;;;2.15;;
49828;SDS011;35723;51.194;5.112;2023-03-11T16:44:10;9.57;;;2.15;;
49828;SDS011;35723;51.194;5.112;2023-03-11T16:46:38;11.43;;;2.15;;
49828;SDS011;35723;51.194;5.112;2023-03-11T16:49:07;8.32;;;2.35;;
49828;SDS011;35723;51.194;5.112;2023-03-11T16:51:33;10.10;;;2.30;;
49828;SDS011;35723;51.194;5.112;2023-03-11T16:53:59;8.82;;;2.00;;
49828;SDS011;35723;51.194;5.112;2023-03-11T16:56:25;8.35;;;2.10;;
49828;SDS011;35723;51.194;5.112;2023-03-11T16:58:50;8.63;;;2.53;;
49828;SDS011;35723;51.194;5.112;2023-03-11T17:01:16;8.63;;;1.83;;
49828;SDS011;35723;51.194;5.112;2023-03-11T17:03:43;7.07;;;1.90;;
49828;SDS011;35723;51.194;5.112;2023-03-11T17:06:12;9.15;;;2.00;;
49828;SDS011;35723;51.194;5.112;2023-03-11T17:08:39;6.80;;;1.90;;